Time;durP1;ratioP1;P1;durP2;ratioP2;P2;SDS_P1;SDS_P2;PMS_P1;PMS_P2;Temp;Humidity;BMP_temperature;BMP_pressure;BME280_temperature;BME280_humidity;BME280_pressure;Samples;Min_cycle;Max_cycle;Signal;HPM_P1;HPM_P2
2022/11/26 00:00:27;;;;;;;;;;;8.00;89.40;;;;;;5025777;28;20004;-81
2022/11/26 00:02:53;;;;;;;;;;;8.00;89.40;;;;;;5031865;28;19928;-82
2022/11/26 00:05:19;;;;;;;;;;;8.00;89.40;;;;;;5035363;28;19913;-82
2022/11/26 00:07:48;;;;;;;;;;;8.00;89.50;;;;;;5030644;28;20322;-82
2022/11/26 00:10:18;;;;;;;;;;;8.00;89.40;;;;;;5029232;28;19913;-81
2022/11/26 00:12:43;;;;;;;;;;;7.90;89.40;;;;;;5031303;28;19918;-82
2022/11/26 00:15:29;;;;;;;;;;;7.90;89.60;;;;;;5013569;28;19947;-81
2022/11/26 00:17:55;;;;;;;;;;;7.90;89.60;;;;;;5011328;28;19921;-83
2022/11/26 00:20:22;;;;;;;;;;;7.90;89.70;;;;;;5013232;28;20291;-82
2022/11/26 00:22:49;;;;;;;;;;;7.80;89.70;;;;;;5030547;28;19913;-83
2022/11/26 00:25:19;;;;;;;;;;;7.90;89.50;;;;;;5027833;28;19923;-82
2022/11/26 00:27:45;;;;;;;;;;;7.80;89.50;;;;;;5010844;28;19952;-82
2022/11/26 00:30:14;;;;;;;;;;;7.90;89.60;;;;;;5027240;28;20514;-82
2022/11/26 00:32:40;;;;;;;;;;;7.80;89.60;;;;;;5036180;28;19917;-83
2022/11/26 00:35:05;;;;;;;;;;;7.80;89.80;;;;;;5025568;28;19999;-82
2022/11/26 00:37:34;;;;;;;;;;;7.80;89.70;;;;;;5025747;28;19929;-81
2022/11/26 00:40:00;;;;;;;;;;;7.80;89.90;;;;;;5044875;28;19917;-83
2022/11/26 00:42:26;;;;;;;;;;;7.80;89.80;;;;;;5015726;28;19967;-83
2022/11/26 00:44:51;;;;;;;;;;;7.80;89.70;;;;;;5009101;28;20361;-82
2022/11/26 00:47:17;;;;;;;;;;;7.70;89.80;;;;;;5039623;28;19913;-83
2022/11/26 00:49:42;;;;;;;;;;;7.70;89.70;;;;;;5028807;28;20005;-83
2022/11/26 00:52:22;;;;;;;;;;;7.60;89.70;;;;;;5013854;28;19913;-81
2022/11/26 00:54:48;;;;;;;;;;;7.70;89.90;;;;;;5031497;28;19933;-81
2022/11/26 00:57:13;;;;;;;;;;;7.80;89.90;;;;;;5032740;28;19913;-83
2022/11/26 00:59:39;;;;;;;;;;;7.70;89.70;;;;;;5008027;28;19917;-83
2022/11/26 01:02:04;;;;;;;;;;;7.70;89.70;;;;;;5028138;28;19956;-82
2022/11/26 01:04:29;;;;;;;;;;;7.70;89.70;;;;;;5011477;28;20468;-83
2022/11/26 01:06:55;;;;;;;;;;;7.80;89.80;;;;;;5013878;28;19933;-83
2022/11/26 01:09:20;;;;;;;;;;;7.80;89.70;;;;;;5011856;28;19939;-82
2022/11/26 01:11:46;;;;;;;;;;;7.80;89.80;;;;;;5028216;28;19989;-83
2022/11/26 01:14:16;;;;;;;;;;;7.80;89.70;;;;;;5023858;28;19913;-82
2022/11/26 01:16:42;;;;;;;;;;;7.80;89.80;;;;;;5023363;28;19917;-82
2022/11/26 01:19:08;;;;;;;;;;;7.80;89.70;;;;;;5018330;28;20338;-83
2022/11/26 01:21:34;;;;;;;;;;;7.80;89.50;;;;;;5024524;28;19913;-83
2022/11/26 01:23:59;;;;;;;;;;;7.70;89.40;;;;;;5016193;28;19971;-82
2022/11/26 01:26:26;;;;;;;;;;;7.70;89.50;;;;;;5009530;28;19944;-83
2022/11/26 01:28:52;;;;;;;;;;;7.70;89.60;;;;;;5034348;28;19913;-83
2022/11/26 01:31:22;;;;;;;;;;;7.60;89.70;;;;;;5019140;28;20431;-81
2022/11/26 01:33:48;;;;;;;;;;;7.70;89.60;;;;;;5028403;28;19913;-82
2022/11/26 01:36:18;;;;;;;;;;;7.70;89.50;;;;;;5021315;28;19924;-81
2022/11/26 01:38:44;;;;;;;;;;;7.60;89.40;;;;;;5026126;28;19931;-82
2022/11/26 01:41:11;;;;;;;;;;;7.60;89.60;;;;;;5015366;28;20298;-81
2022/11/26 01:43:41;;;;;;;;;;;7.60;89.80;;;;;;5022675;28;19983;-82
2022/11/26 01:46:12;;;;;;;;;;;7.60;90.10;;;;;;5011675;28;20015;-82
2022/11/26 01:48:38;;;;;;;;;;;7.60;90.00;;;;;;5024889;28;19921;-83
2022/11/26 01:51:05;;;;;;;;;;;7.70;90.10;;;;;;5026443;28;19917;-81
2022/11/26 01:53:32;;;;;;;;;;;7.80;89.90;;;;;;5019012;28;19920;-81
2022/11/26 01:55:59;;;;;;;;;;;7.80;89.80;;;;;;5031319;28;19956;-83
2022/11/26 01:58:28;;;;;;;;;;;7.90;89.70;;;;;;5026760;28;19924;-83
2022/11/26 02:00:54;;;;;;;;;;;7.90;89.50;;;;;;5011646;28;20371;-81
2022/11/26 02:03:19;;;;;;;;;;;7.90;89.30;;;;;;5025217;28;19913;-81
2022/11/26 02:05:53;;;;;;;;;;;7.90;89.40;;;;;;5025566;28;20362;-81
2022/11/26 02:08:18;;;;;;;;;;;7.90;89.30;;;;;;5015679;28;20359;-81
2022/11/26 02:10:44;;;;;;;;;;;7.90;89.30;;;;;;5047976;28;19928;-80
2022/11/26 02:13:09;;;;;;;;;;;8.00;89.30;;;;;;5043964;28;19937;-80
2022/11/26 02:15:41;;;;;;;;;;;8.00;89.30;;;;;;5035345;28;19913;-83
2022/11/26 02:18:07;;;;;;;;;;;8.00;89.30;;;;;;5041626;28;19914;-80
2022/11/26 02:20:44;;;;;;;;;;;8.00;89.00;;;;;;5017743;28;19913;-83
2022/11/26 02:23:25;;;;;;;;;;;8.10;88.80;;;;;;5015511;28;19952;-83
2022/11/26 02:26:09;;;;;;;;;;;8.10;88.80;;;;;;5018911;28;19936;-83
2022/11/26 02:28:53;;;;;;;;;;;8.00;88.90;;;;;;5025558;28;19920;-83
2022/11/26 02:31:20;;;;;;;;;;;8.00;89.10;;;;;;5042911;28;19915;-80
2022/11/26 02:33:51;;;;;;;;;;;8.00;89.00;;;;;;5025409;28;19924;-81
2022/11/26 02:36:32;;;;;;;;;;;8.00;89.10;;;;;;5017205;28;20261;-82
2022/11/26 02:39:09;;;;;;;;;;;8.00;89.20;;;;;;5019047;28;19917;-82
2022/11/26 02:41:40;;;;;;;;;;;7.90;89.10;;;;;;5026663;28;19921;-83
2022/11/26 02:44:05;;;;;;;;;;;7.90;89.00;;;;;;5017995;28;20402;-83
2022/11/26 02:46:31;;;;;;;;;;;7.90;88.90;;;;;;5031471;28;19924;-83
2022/11/26 02:48:56;;;;;;;;;;;7.90;88.70;;;;;;5027918;28;19913;-82
2022/11/26 02:51:24;;;;;;;;;;;7.80;88.90;;;;;;5031810;28;19963;-81
2022/11/26 02:53:50;;;;;;;;;;;7.70;89.00;;;;;;5011481;28;19921;-81
2022/11/26 02:56:18;;;;;;;;;;;7.70;89.30;;;;;;5031811;28;19919;-81
2022/11/26 02:58:43;;;;;;;;;;;7.60;89.20;;;;;;5012353;28;19967;-81
2022/11/26 03:01:11;;;;;;;;;;;7.60;89.20;;;;;;5028691;28;19917;-79
2022/11/26 03:03:39;;;;;;;;;;;7.60;89.20;;;;;;5035269;28;19987;-82
2022/11/26 03:06:07;;;;;;;;;;;7.60;89.00;;;;;;5022780;28;19917;-81
2022/11/26 03:08:32;;;;;;;;;;;7.60;89.10;;;;;;5027615;28;20003;-81
2022/11/26 03:10:58;;;;;;;;;;;7.60;89.00;;;;;;5048707;28;20405;-82
2022/11/26 03:13:23;;;;;;;;;;;7.60;88.70;;;;;;5038547;28;19996;-81
2022/11/26 03:15:49;;;;;;;;;;;7.60;88.80;;;;;;5029165;28;20007;-82
2022/11/26 03:18:14;;;;;;;;;;;7.50;89.00;;;;;;5015684;28;20289;-83
2022/11/26 03:20:40;;;;;;;;;;;7.50;88.80;;;;;;5026350;28;20000;-79
2022/11/26 03:23:05;;;;;;;;;;;7.50;89.00;;;;;;5041761;28;19922;-83
2022/11/26 03:25:31;;;;;;;;;;;7.40;89.20;;;;;;5015216;28;19917;-83
2022/11/26 03:27:56;;;;;;;;;;;7.40;89.30;;;;;;5032020;28;20330;-83
2022/11/26 03:32:48;;;;;;;;;;;7.30;89.60;;;;;;5108474;22;19935;-84
2022/11/26 03:35:13;;;;;;;;;;;7.30;89.40;;;;;;5085941;28;20009;-83
2022/11/26 03:37:39;;;;;;;;;;;7.30;89.40;;;;;;5083115;28;19913;-83
2022/11/26 03:40:05;;;;;;;;;;;7.30;89.60;;;;;;5063098;28;19924;-83
2022/11/26 03:42:30;;;;;;;;;;;7.20;89.70;;;;;;5091304;28;19912;-83
2022/11/26 03:44:56;;;;;;;;;;;7.20;89.60;;;;;;5075546;28;19969;-83
2022/11/26 03:47:21;;;;;;;;;;;7.20;89.80;;;;;;5066741;28;19912;-83
2022/11/26 03:49:47;;;;;;;;;;;7.20;89.70;;;;;;5076894;28;20295;-82
2022/11/26 03:52:12;;;;;;;;;;;7.20;89.70;;;;;;5086451;28;19924;-83
2022/11/26 03:54:37;;;;;;;;;;;7.10;89.70;;;;;;5065301;28;19948;-82
2022/11/26 03:57:03;;;;;;;;;;;7.10;89.80;;;;;;5067408;28;19916;-82
2022/11/26 03:59:28;;;;;;;;;;;7.10;89.80;;;;;;5068639;28;19916;-82
2022/11/26 04:01:54;;;;;;;;;;;7.10;89.70;;;;;;5085018;28;19909;-83
2022/11/26 04:04:22;;;;;;;;;;;7.10;89.70;;;;;;5094774;28;19908;-82
2022/11/26 04:06:56;;;;;;;;;;;7.10;89.70;;;;;;5113989;28;19970;-81
2022/11/26 04:09:25;;;;;;;;;;;7.10;89.60;;;;;;5093921;28;19920;-82
2022/11/26 04:11:51;;;;;;;;;;;7.10;89.70;;;;;;5092582;28;19960;-81
2022/11/26 04:14:27;;;;;;;;;;;7.10;89.70;;;;;;5100992;28;19934;-83
2022/11/26 04:16:53;;;;;;;;;;;7.10;89.60;;;;;;5100149;28;19923;-83
2022/11/26 04:19:23;;;;;;;;;;;7.10;89.70;;;;;;5085381;28;19916;-83
2022/11/26 04:21:57;;;;;;;;;;;7.10;89.80;;;;;;5077489;28;19980;-83
2022/11/26 04:24:53;;;;;;;;;;;7.00;89.90;;;;;;5076826;28;20341;-82
2022/11/26 04:30:52;;;;;;;;;;;6.90;90.00;;;;;;5022951;28;19913;-82
2022/11/26 04:36:54;;;;;;;;;;;6.90;89.80;;;;;;5029517;28;19914;-82
2022/11/26 04:39:22;;;;;;;;;;;6.80;89.80;;;;;;5027088;28;19917;-82
2022/11/26 04:42:01;;;;;;;;;;;6.80;90.00;;;;;;5025270;28;20416;-83
2022/11/26 04:44:29;;;;;;;;;;;6.90;90.10;;;;;;5030848;28;19913;-82
2022/11/26 04:46:55;;;;;;;;;;;6.90;90.10;;;;;;5039154;28;19919;-82
2022/11/26 04:49:20;;;;;;;;;;;6.90;89.90;;;;;;5094472;28;20429;-82
2022/11/26 04:51:46;;;;;;;;;;;6.80;89.60;;;;;;5074639;28;20442;-84
2022/11/26 04:54:29;;;;;;;;;;;6.80;89.70;;;;;;5069250;28;19912;-83
2022/11/26 04:57:04;;;;;;;;;;;6.80;89.50;;;;;;5070688;28;19965;-82
2022/11/26 04:59:40;;;;;;;;;;;6.80;89.50;;;;;;5073989;28;20344;-83
2022/11/26 05:02:16;;;;;;;;;;;6.80;89.50;;;;;;5071370;28;19919;-82
2022/11/26 05:04:46;;;;;;;;;;;6.80;89.30;;;;;;5071148;28;19912;-82
2022/11/26 05:07:15;;;;;;;;;;;6.80;89.40;;;;;;5088060;28;19920;-83
2022/11/26 05:09:49;;;;;;;;;;;6.70;89.60;;;;;;5073646;28;20287;-83
2022/11/26 05:12:29;;;;;;;;;;;6.60;89.90;;;;;;5078536;28;19912;-83
2022/11/26 05:15:00;;;;;;;;;;;6.70;90.00;;;;;;5078212;28;19912;-82
2022/11/26 05:17:28;;;;;;;;;;;6.70;90.00;;;;;;5086152;28;19991;-82
2022/11/26 05:20:01;;;;;;;;;;;6.70;89.90;;;;;;5092991;28;19923;-83
2022/11/26 05:22:29;;;;;;;;;;;6.80;89.90;;;;;;5087451;28;19913;-82
2022/11/26 05:24:54;;;;;;;;;;;6.70;89.70;;;;;;5103844;28;19920;-82
2022/11/26 05:27:20;;;;;;;;;;;6.70;89.80;;;;;;5072153;28;20268;-83
2022/11/26 05:29:46;;;;;;;;;;;6.70;89.50;;;;;;5087103;28;19976;-81
2022/11/26 05:32:11;;;;;;;;;;;6.70;89.60;;;;;;5073200;28;20272;-82
2022/11/26 05:34:37;;;;;;;;;;;6.60;89.60;;;;;;5066871;28;19920;-82
2022/11/26 05:37:02;;;;;;;;;;;6.60;89.60;;;;;;5088664;28;19912;-82
2022/11/26 05:39:28;;;;;;;;;;;6.70;89.80;;;;;;5088488;28;20268;-82
2022/11/26 05:44:58;;;;;;;;;;;6.70;89.50;;;;;;5079872;28;19950;-83
2022/11/26 05:47:29;;;;;;;;;;;6.70;89.60;;;;;;5082528;28;19916;-83
2022/11/26 05:50:17;;;;;;;;;;;6.70;89.70;;;;;;5086922;28;19919;-81
2022/11/26 05:52:42;;;;;;;;;;;6.70;89.70;;;;;;5081194;28;19965;-83
2022/11/26 05:55:40;;;;;;;;;;;6.70;89.90;;;;;;5068181;28;19912;-83
2022/11/26 05:58:19;;;;;;;;;;;6.80;90.00;;;;;;5062876;28;19916;-82
2022/11/26 06:00:44;;;;;;;;;;;6.70;89.80;;;;;;5084378;28;19930;-82
2022/11/26 06:03:10;;;;;;;;;;;6.70;89.90;;;;;;5076886;28;19912;-82
2022/11/26 06:05:41;;;;;;;;;;;6.80;89.70;;;;;;5060986;28;19912;-82
2022/11/26 06:08:09;;;;;;;;;;;6.70;89.90;;;;;;5063516;28;19919;-81
2022/11/26 06:10:42;;;;;;;;;;;6.70;89.50;;;;;;5079709;28;19913;-83
2022/11/26 06:13:07;;;;;;;;;;;6.70;89.80;;;;;;5090461;28;19939;-83
2022/11/26 06:15:46;;;;;;;;;;;6.60;89.90;;;;;;5085118;28;20356;-82
2022/11/26 06:18:21;;;;;;;;;;;6.70;90.20;;;;;;5069128;28;19913;-83
2022/11/26 06:20:52;;;;;;;;;;;6.70;89.90;;;;;;5065160;28;19923;-84
2022/11/26 06:23:26;;;;;;;;;;;6.60;89.90;;;;;;5071372;28;20086;-84
2022/11/26 06:30:05;;;;;;;;;;;;;;;;;;;;;
2022/11/26 06:33:05;;;;;;;;;;;6.60;89.80;;;;;;5005141;28;19918;-83
2022/11/26 06:35:31;;;;;;;;;;;6.60;89.70;;;;;;5080256;28;19912;-83
2022/11/26 06:38:08;;;;;;;;;;;6.60;89.90;;;;;;5077164;28;20380;-83
2022/11/26 06:40:36;;;;;;;;;;;6.60;89.80;;;;;;5071663;28;19955;-83
2022/11/26 06:43:04;;;;;;;;;;;6.60;90.00;;;;;;5075029;28;19916;-82
2022/11/26 06:45:45;;;;;;;;;;;6.60;90.00;;;;;;5069588;28;20291;-83
2022/11/26 06:51:26;;;;;;;;;;;;;;;;;;;;;
2022/11/26 06:59:22;;;;;;;;;;;6.60;89.60;;;;;;5072959;22;19924;-85
2022/11/26 07:01:47;;;;;;;;;;;6.50;89.80;;;;;;5045306;28;19935;-83
2022/11/26 07:04:13;;;;;;;;;;;6.60;89.80;;;;;;5061151;28;19978;-84
2022/11/26 07:06:38;;;;;;;;;;;6.60;89.70;;;;;;5041157;28;20390;-86
2022/11/26 07:09:21;;;;;;;;;;;6.60;89.70;;;;;;5051573;28;19912;-90
2022/11/26 07:11:48;;;;;;;;;;;6.60;89.80;;;;;;5044446;28;19923;-85
2022/11/26 07:14:13;;;;;;;;;;;6.60;89.80;;;;;;5048969;28;19920;-85
2022/11/26 07:16:38;;;;;;;;;;;6.60;90.00;;;;;;5052414;28;19916;-84
2022/11/26 07:19:04;;;;;;;;;;;6.60;90.00;;;;;;5067506;28;19943;-84
2022/11/26 07:21:29;;;;;;;;;;;6.60;89.70;;;;;;5065367;28;19916;-84
2022/11/26 07:23:55;;;;;;;;;;;6.70;89.70;;;;;;5053914;28;21383;-87
2022/11/26 07:26:21;;;;;;;;;;;6.60;89.50;;;;;;5055850;28;19913;-83
2022/11/26 07:28:47;;;;;;;;;;;6.60;89.50;;;;;;5071299;28;19940;-86
2022/11/26 07:31:13;;;;;;;;;;;6.60;89.60;;;;;;5056815;28;19912;-86
2022/11/26 07:33:39;;;;;;;;;;;6.60;89.60;;;;;;5067920;28;20386;-86
2022/11/26 07:36:05;;;;;;;;;;;6.60;89.70;;;;;;5071640;28;19970;-85
2022/11/26 07:38:31;;;;;;;;;;;6.60;89.60;;;;;;5056263;28;19917;-86
2022/11/26 07:41:07;;;;;;;;;;;6.60;89.60;;;;;;5063630;28;20046;-86
2022/11/26 07:43:36;;;;;;;;;;;6.60;89.40;;;;;;5059074;28;19919;-86
2022/11/26 07:46:02;;;;;;;;;;;6.60;89.60;;;;;;5066431;28;20629;-85
2022/11/26 07:48:28;;;;;;;;;;;6.70;89.50;;;;;;5050767;28;20601;-86
2022/11/26 07:50:54;;;;;;;;;;;6.70;89.50;;;;;;5055989;28;19917;-86
2022/11/26 07:53:19;;;;;;;;;;;6.80;89.80;;;;;;5072694;28;19908;-86
2022/11/26 07:55:44;;;;;;;;;;;6.80;89.80;;;;;;5053049;28;20042;-85
2022/11/26 07:58:10;;;;;;;;;;;6.80;89.70;;;;;;5052125;28;19917;-85
2022/11/26 08:00:35;;;;;;;;;;;6.90;89.80;;;;;;5055459;28;19959;-86
2022/11/26 08:03:01;;;;;;;;;;;7.00;90.00;;;;;;5057116;28;19912;-86
2022/11/26 08:05:26;;;;;;;;;;;7.00;89.80;;;;;;5067084;28;19920;-86
2022/11/26 08:07:51;;;;;;;;;;;7.10;89.70;;;;;;5052113;28;19917;-87
2022/11/26 08:10:17;;;;;;;;;;;7.10;89.70;;;;;;5048109;28;19913;-86
2022/11/26 08:12:44;;;;;;;;;;;7.10;89.60;;;;;;5058001;28;19912;-86
2022/11/26 08:15:10;;;;;;;;;;;7.20;89.70;;;;;;5058650;28;19920;-85
2022/11/26 08:17:35;;;;;;;;;;;7.10;89.50;;;;;;5055919;28;20378;-83
2022/11/26 08:20:01;;;;;;;;;;;7.20;89.90;;;;;;5067081;28;20003;-82
2022/11/26 08:22:28;;;;;;;;;;;7.30;89.80;;;;;;5065494;28;19988;-83
2022/11/26 08:24:53;;;;;;;;;;;7.20;89.70;;;;;;5058796;28;19916;-83
2022/11/26 08:27:18;;;;;;;;;;;7.30;89.60;;;;;;5048903;28;20006;-83
2022/11/26 08:29:44;;;;;;;;;;;7.20;89.60;;;;;;5073021;28;19916;-84
2022/11/26 08:32:09;;;;;;;;;;;7.30;89.50;;;;;;5063525;28;19957;-82
2022/11/26 08:34:35;;;;;;;;;;;7.30;89.60;;;;;;5064016;28;20000;-84
2022/11/26 08:37:00;;;;;;;;;;;7.40;89.70;;;;;;5048780;28;20441;-84
2022/11/26 08:39:26;;;;;;;;;;;7.50;89.60;;;;;;5055033;28;19917;-83
2022/11/26 08:41:52;;;;;;;;;;;7.60;89.70;;;;;;5059920;28;19913;-84
2022/11/26 08:44:18;;;;;;;;;;;7.60;89.30;;;;;;5064887;28;19913;-83
2022/11/26 08:46:43;;;;;;;;;;;7.60;89.30;;;;;;5060979;28;20259;-83
2022/11/26 08:49:09;;;;;;;;;;;7.70;89.30;;;;;;5050982;28;19920;-83
2022/11/26 08:51:35;;;;;;;;;;;7.60;88.90;;;;;;5046290;28;19920;-82
2022/11/26 08:54:01;;;;;;;;;;;7.70;88.90;;;;;;5043849;28;19913;-85
2022/11/26 08:56:26;;;;;;;;;;;7.70;88.90;;;;;;5046129;28;19916;-84
2022/11/26 08:58:52;;;;;;;;;;;7.70;88.90;;;;;;5064443;28;19921;-84
2022/11/26 09:01:21;;;;;;;;;;;7.80;88.80;;;;;;5065728;28;19916;-85
2022/11/26 09:03:50;;;;;;;;;;;7.90;88.70;;;;;;5055637;28;21536;-86
2022/11/26 09:06:15;;;;;;;;;;;7.90;88.50;;;;;;5049889;28;19919;-85
2022/11/26 09:11:25;;;;;;;;;;;7.90;88.50;;;;;;5072006;28;19970;-87
2022/11/26 09:13:52;;;;;;;;;;;7.90;88.60;;;;;;5049461;28;20543;-86
2022/11/26 09:16:18;;;;;;;;;;;8.00;88.80;;;;;;5061123;28;19913;-86
2022/11/26 09:18:43;;;;;;;;;;;8.00;88.30;;;;;;5057623;28;20400;-88
2022/11/26 09:21:08;;;;;;;;;;;8.10;88.20;;;;;;5054284;28;19916;-85
2022/11/26 09:23:34;;;;;;;;;;;8.10;88.20;;;;;;5044641;28;19912;-85
2022/11/26 09:25:59;;;;;;;;;;;8.10;88.40;;;;;;5066572;28;20324;-85
2022/11/26 09:28:26;;;;;;;;;;;8.10;88.10;;;;;;5047892;28;19920;-84
2022/11/26 09:30:56;;;;;;;;;;;8.30;87.90;;;;;;5044499;28;20284;-86
2022/11/26 09:33:21;;;;;;;;;;;8.30;87.50;;;;;;5062992;28;21969;-85
2022/11/26 09:35:46;;;;;;;;;;;8.30;87.30;;;;;;5064530;28;19921;-85
2022/11/26 09:38:12;;;;;;;;;;;8.30;87.30;;;;;;5050375;28;19919;-84
2022/11/26 09:40:52;;;;;;;;;;;8.30;86.90;;;;;;5044028;28;19921;-84
2022/11/26 09:43:24;;;;;;;;;;;8.30;87.20;;;;;;5056583;28;20014;-85
2022/11/26 09:45:54;;;;;;;;;;;8.30;86.80;;;;;;5045157;28;20371;-85
2022/11/26 09:48:21;;;;;;;;;;;8.40;86.90;;;;;;5069821;28;19920;-85
2022/11/26 09:50:47;;;;;;;;;;;8.40;86.70;;;;;;5056223;28;20054;-85
2022/11/26 09:53:24;;;;;;;;;;;8.40;86.70;;;;;;5053535;28;19908;-85
2022/11/26 09:55:54;;;;;;;;;;;8.40;86.80;;;;;;5051704;28;19916;-85
2022/11/26 09:58:26;;;;;;;;;;;8.50;86.70;;;;;;5037088;28;20432;-84
2022/11/26 10:00:53;;;;;;;;;;;8.60;86.60;;;;;;5058286;28;20078;-92
2022/11/26 10:03:20;;;;;;;;;;;8.60;86.30;;;;;;5044539;28;20450;-85
2022/11/26 10:05:51;;;;;;;;;;;8.60;86.20;;;;;;5051382;28;20279;-86
2022/11/26 10:08:25;;;;;;;;;;;8.60;86.10;;;;;;5052429;28;19914;-87
2022/11/26 10:10:54;;;;;;;;;;;8.70;85.70;;;;;;5051506;28;19913;-85
2022/11/26 10:13:40;;;;;;;;;;;8.70;85.70;;;;;;5050333;28;19913;-85
2022/11/26 10:19:32;;;;;;;;;;;8.80;85.70;;;;;;4982119;28;20001;-85
2022/11/26 10:22:02;;;;;;;;;;;8.90;86.10;;;;;;5049819;28;20003;-86
2022/11/26 10:24:27;;;;;;;;;;;9.00;85.70;;;;;;5041200;28;19913;-86
2022/11/26 10:26:53;;;;;;;;;;;9.10;85.40;;;;;;5055589;28;20278;-85
2022/11/26 10:29:23;;;;;;;;;;;9.00;85.20;;;;;;5062134;28;19925;-85
2022/11/26 10:31:50;;;;;;;;;;;9.10;85.20;;;;;;5053487;28;19924;-85
2022/11/26 10:34:17;;;;;;;;;;;9.20;85.10;;;;;;5053362;28;19912;-82
2022/11/26 10:36:43;;;;;;;;;;;9.20;85.10;;;;;;5045761;28;20444;-83
2022/11/26 10:39:14;;;;;;;;;;;9.40;84.60;;;;;;5045991;28;19924;-84
2022/11/26 10:41:39;;;;;;;;;;;9.50;84.30;;;;;;5058254;28;19921;-84
2022/11/26 10:44:23;;;;;;;;;;;9.50;84.10;;;;;;5058217;28;19916;-87
2022/11/26 10:46:49;;;;;;;;;;;9.50;84.30;;;;;;5058284;28;20258;-84
2022/11/26 10:49:17;;;;;;;;;;;9.50;84.30;;;;;;5069126;28;19908;-83
2022/11/26 10:51:45;;;;;;;;;;;9.50;84.20;;;;;;5072576;28;19962;-83
2022/11/26 10:54:22;;;;;;;;;;;9.50;84.00;;;;;;5053852;28;19977;-82
2022/11/26 10:56:52;;;;;;;;;;;9.50;84.00;;;;;;5051609;28;19913;-82
2022/11/26 10:59:43;;;;;;;;;;;9.60;83.80;;;;;;5039194;28;20401;-82
2022/11/26 11:02:21;;;;;;;;;;;9.70;83.40;;;;;;5047160;28;20004;-80
2022/11/26 11:04:48;;;;;;;;;;;9.80;83.40;;;;;;5051746;28;19966;-80
2022/11/26 11:07:32;;;;;;;;;;;9.80;83.10;;;;;;5065404;28;20278;-81
2022/11/26 11:10:04;;;;;;;;;;;9.80;83.10;;;;;;5050308;28;19963;-82
2022/11/26 11:12:29;;;;;;;;;;;9.80;83.10;;;;;;5052748;28;20098;-82
2022/11/26 11:14:55;;;;;;;;;;;9.80;83.00;;;;;;5058482;28;19959;-82
2022/11/26 11:17:26;;;;;;;;;;;9.90;83.10;;;;;;5077743;28;19915;-83
2022/11/26 11:19:52;;;;;;;;;;;10.00;83.20;;;;;;5047966;28;20015;-83
2022/11/26 11:22:18;;;;;;;;;;;10.00;83.10;;;;;;5059715;28;20002;-83
2022/11/26 11:24:44;;;;;;;;;;;10.00;82.30;;;;;;5061369;28;19912;-83
2022/11/26 11:27:20;;;;;;;;;;;10.00;82.50;;;;;;5054568;28;20330;-85
2022/11/26 11:29:45;;;;;;;;;;;10.00;82.60;;;;;;5061672;28;20345;-82
2022/11/26 11:32:30;;;;;;;;;;;10.10;82.80;;;;;;5070867;28;19944;-83
2022/11/26 11:35:10;;;;;;;;;;;10.20;82.20;;;;;;5051336;28;19927;-82
2022/11/26 11:37:45;;;;;;;;;;;10.20;82.20;;;;;;5052881;28;19912;-83
2022/11/26 11:40:17;;;;;;;;;;;10.30;82.30;;;;;;5052828;28;19917;-83
2022/11/26 11:42:47;;;;;;;;;;;10.30;82.30;;;;;;5042331;28;19916;-84
2022/11/26 11:45:32;;;;;;;;;;;10.30;81.70;;;;;;5062316;28;19912;-83
2022/11/26 11:48:03;;;;;;;;;;;10.50;81.20;;;;;;5052162;28;20302;-83
2022/11/26 11:50:33;;;;;;;;;;;10.50;81.20;;;;;;5040519;28;19916;-83
2022/11/26 11:53:04;;;;;;;;;;;10.50;81.10;;;;;;5051341;28;19961;-83
2022/11/26 11:55:45;;;;;;;;;;;10.60;81.40;;;;;;5050295;28;20309;-82
2022/11/26 11:58:35;;;;;;;;;;;10.60;81.30;;;;;;5059947;28;19996;-83
2022/11/26 12:01:14;;;;;;;;;;;10.60;81.50;;;;;;5072393;28;19917;-84
2022/11/26 12:03:43;;;;;;;;;;;10.60;81.10;;;;;;5068734;28;20011;-84
2022/11/26 12:06:26;;;;;;;;;;;10.60;81.00;;;;;;5063219;28;19917;-85
2022/11/26 12:08:59;;;;;;;;;;;10.60;80.90;;;;;;5061246;28;19920;-83
2022/11/26 12:11:37;;;;;;;;;;;10.60;81.30;;;;;;5060173;28;19912;-83
2022/11/26 12:14:12;;;;;;;;;;;10.60;81.20;;;;;;5060737;28;19916;-82
2022/11/26 12:16:41;;;;;;;;;;;10.70;81.50;;;;;;5066775;28;19932;-83
2022/11/26 12:19:13;;;;;;;;;;;10.70;81.00;;;;;;5061021;28;19917;-82
2022/11/26 12:21:44;;;;;;;;;;;10.80;81.00;;;;;;5066217;28;19952;-83
2022/11/26 12:24:24;;;;;;;;;;;10.80;80.90;;;;;;5060687;28;20382;-82
2022/11/26 12:27:16;;;;;;;;;;;10.90;80.50;;;;;;5056933;28;19919;-82
2022/11/26 12:29:48;;;;;;;;;;;10.80;80.20;;;;;;5009916;28;19914;-88
2022/11/26 12:32:15;;;;;;;;;;;10.80;80.60;;;;;;5070706;28;19917;-83
2022/11/26 12:34:46;;;;;;;;;;;10.80;80.80;;;;;;5059148;28;20405;-83
2022/11/26 12:37:31;;;;;;;;;;;10.80;80.80;;;;;;5044087;28;20022;-83
2022/11/26 12:40:13;;;;;;;;;;;10.90;80.70;;;;;;5054119;28;19927;-83
2022/11/26 12:42:45;;;;;;;;;;;10.90;80.40;;;;;;5052848;28;19912;-83
2022/11/26 12:45:19;;;;;;;;;;;10.80;81.00;;;;;;5075169;28;19991;-84
2022/11/26 12:47:54;;;;;;;;;;;10.80;80.40;;;;;;5062622;28;20008;-83
2022/11/26 12:50:19;;;;;;;;;;;10.80;80.80;;;;;;5049662;28;20009;-83
2022/11/26 12:52:47;;;;;;;;;;;10.90;80.80;;;;;;5065107;28;19944;-83
2022/11/26 12:55:16;;;;;;;;;;;10.80;80.80;;;;;;5051026;28;19912;-83
2022/11/26 12:57:46;;;;;;;;;;;10.90;80.90;;;;;;5053592;28;19917;-81
2022/11/26 13:00:18;;;;;;;;;;;10.80;80.70;;;;;;5069393;28;19916;-81
2022/11/26 13:02:46;;;;;;;;;;;10.80;80.50;;;;;;5059999;28;20361;-83
2022/11/26 13:05:17;;;;;;;;;;;10.80;80.30;;;;;;5073823;28;19927;-83
2022/11/26 13:07:46;;;;;;;;;;;10.80;80.10;;;;;;5041121;28;19913;-83
2022/11/26 13:10:30;;;;;;;;;;;10.70;80.50;;;;;;5069708;28;19967;-83
2022/11/26 13:13:05;;;;;;;;;;;10.70;80.50;;;;;;5060209;28;19913;-83
2022/11/26 13:15:45;;;;;;;;;;;10.60;80.80;;;;;;5063457;28;19948;-83
2022/11/26 13:18:20;;;;;;;;;;;10.70;80.90;;;;;;5060621;28;19943;-82
2022/11/26 13:21:01;;;;;;;;;;;10.70;80.70;;;;;;5061386;28;19983;-83
2022/11/26 13:23:29;;;;;;;;;;;10.70;80.70;;;;;;5062174;28;20330;-84
2022/11/26 13:26:07;;;;;;;;;;;10.60;80.90;;;;;;5045370;28;19999;-83
2022/11/26 13:28:36;;;;;;;;;;;10.70;80.70;;;;;;5056595;28;20015;-82
2022/11/26 13:31:18;;;;;;;;;;;10.70;80.70;;;;;;5044273;28;19913;-84
2022/11/26 13:34:02;;;;;;;;;;;10.70;80.60;;;;;;5047338;28;19919;-86
2022/11/26 13:36:45;;;;;;;;;;;10.60;80.20;;;;;;5043909;28;19917;-85
2022/11/26 13:39:29;;;;;;;;;;;10.60;80.30;;;;;;5062985;28;19928;-84
2022/11/26 13:42:13;;;;;;;;;;;10.60;80.20;;;;;;5061592;28;19947;-83
2022/11/26 13:44:55;;;;;;;;;;;10.60;80.10;;;;;;5061349;28;19913;-83
2022/11/26 13:47:27;;;;;;;;;;;10.60;80.40;;;;;;5068029;28;19913;-82
2022/11/26 13:49:59;;;;;;;;;;;10.60;80.30;;;;;;5037024;28;19917;-82
2022/11/26 13:52:25;;;;;;;;;;;10.60;80.30;;;;;;5071882;28;19996;-86
2022/11/26 13:54:59;;;;;;;;;;;10.60;80.40;;;;;;5045731;28;19924;-86
2022/11/26 13:57:30;;;;;;;;;;;10.70;80.30;;;;;;5053731;28;20006;-85
2022/11/26 13:59:56;;;;;;;;;;;10.70;80.20;;;;;;5068525;28;19916;-83
2022/11/26 14:02:34;;;;;;;;;;;10.60;80.50;;;;;;5061536;28;20336;-83
2022/11/26 14:05:00;;;;;;;;;;;10.70;80.40;;;;;;5066297;28;19956;-83
2022/11/26 14:07:26;;;;;;;;;;;10.60;80.50;;;;;;5042590;28;19931;-84
2022/11/26 14:09:52;;;;;;;;;;;10.60;80.70;;;;;;5067541;28;19917;-84
2022/11/26 14:12:19;;;;;;;;;;;10.60;80.50;;;;;;5079118;28;19935;-84
2022/11/26 14:14:46;;;;;;;;;;;10.60;80.00;;;;;;5073656;28;19967;-83
2022/11/26 14:17:16;;;;;;;;;;;10.60;80.30;;;;;;5069999;28;19959;-83
2022/11/26 14:19:41;;;;;;;;;;;10.60;80.60;;;;;;5056146;28;19916;-84
2022/11/26 14:22:24;;;;;;;;;;;10.60;80.40;;;;;;5051029;28;19913;-84
2022/11/26 14:24:49;;;;;;;;;;;10.60;80.50;;;;;;5070034;28;19924;-84
2022/11/26 14:27:15;;;;;;;;;;;10.60;79.90;;;;;;5056203;28;19988;-84
2022/11/26 14:29:42;;;;;;;;;;;10.50;80.60;;;;;;5072824;28;19913;-84
2022/11/26 14:32:10;;;;;;;;;;;10.50;80.50;;;;;;5047889;28;19913;-86
2022/11/26 14:34:49;;;;;;;;;;;10.60;80.70;;;;;;5065165;28;20396;-84
2022/11/26 14:37:15;;;;;;;;;;;10.60;80.60;;;;;;5052433;28;19912;-84
2022/11/26 14:39:41;;;;;;;;;;;10.60;80.50;;;;;;5072999;28;19932;-85
2022/11/26 14:42:13;;;;;;;;;;;10.60;80.20;;;;;;5059141;28;19926;-85
2022/11/26 14:44:38;;;;;;;;;;;10.60;80.50;;;;;;5054993;28;19916;-85
2022/11/26 14:47:09;;;;;;;;;;;10.60;80.40;;;;;;5048138;28;19998;-85
2022/11/26 14:49:39;;;;;;;;;;;10.70;79.90;;;;;;5043108;28;19917;-85
2022/11/26 14:52:14;;;;;;;;;;;10.70;79.80;;;;;;5067552;28;20432;-85
2022/11/26 14:54:39;;;;;;;;;;;10.70;79.40;;;;;;5050326;28;19912;-85
2022/11/26 14:57:06;;;;;;;;;;;10.60;79.30;;;;;;5050527;28;19923;-86
2022/11/26 14:59:32;;;;;;;;;;;10.50;79.90;;;;;;5052438;28;19920;-85
2022/11/26 15:01:57;;;;;;;;;;;10.60;79.80;;;;;;5069631;28;19912;-85
2022/11/26 15:04:25;;;;;;;;;;;10.60;80.10;;;;;;5045879;28;19913;-84
2022/11/26 15:06:50;;;;;;;;;;;10.60;80.30;;;;;;5065597;28;20282;-85
2022/11/26 15:09:24;;;;;;;;;;;10.50;80.40;;;;;;5052405;28;19923;-85
2022/11/26 15:11:56;;;;;;;;;;;10.60;80.30;;;;;;5040257;28;19913;-84
2022/11/26 15:14:38;;;;;;;;;;;10.50;80.30;;;;;;5063795;28;19920;-84